sensor_id;sensor_type;location;lat;lon;timestamp;pressure;altitude;pressure_sealevel;temperature;humidity
42003;BME280;27693;50.506;30.832;2023-08-17T00:00:20;100365.33;;;22.20;70.08
42003;BME280;27693;50.506;30.832;2023-08-17T00:01:25;100361.72;;;22.21;69.94
42003;BME280;27693;50.506;30.832;2023-08-17T00:02:27;100359.06;;;22.21;70.18
42003;BME280;27693;50.506;30.832;2023-08-17T00:03:29;100363.40;;;22.22;69.93
42003;BME280;27693;50.506;30.832;2023-08-17T00:04:32;100357.13;;;22.23;69.61
42003;BME280;27693;50.506;30.832;2023-08-17T00:05:34;100358.82;;;22.24;70.22
42003;BME280;27693;50.506;30.832;2023-08-17T00:06:37;100360.17;;;22.18;70.53
42003;BME280;27693;50.506;30.832;2023-08-17T00:07:39;100365.61;;;22.16;70.66
42003;BME280;27693;50.506;30.832;2023-08-17T00:08:42;100367.54;;;22.14;70.11
42003;BME280;27693;50.506;30.832;2023-08-17T00:09:44;100367.78;;;22.11;70.56
42003;BME280;27693;50.506;30.832;2023-08-17T00:10:47;100366.13;;;22.10;70.85
42003;BME280;27693;50.506;30.832;2023-08-17T00:11:50;100363.34;;;22.12;71.00
42003;BME280;27693;50.506;30.832;2023-08-17T00:12:54;100364.17;;;22.12;71.07
42003;BME280;27693;50.506;30.832;2023-08-17T00:13:57;100367.78;;;22.11;71.22
42003;BME280;27693;50.506;30.832;2023-08-17T00:16:02;100364.44;;;22.09;71.04
42003;BME280;27693;50.506;30.832;2023-08-17T00:17:05;100366.37;;;22.07;71.05
42003;BME280;27693;50.506;30.832;2023-08-17T00:18:07;100369.02;;;22.07;71.17
42003;BME280;27693;50.506;30.832;2023-08-17T00:19:10;100369.98;;;22.06;71.43
42003;BME280;27693;50.506;30.832;2023-08-17T00:20:15;100364.55;;;22.08;72.50
42003;BME280;27693;50.506;30.832;2023-08-17T00:21:18;100370.44;;;22.11;71.43
42003;BME280;27693;50.506;30.832;2023-08-17T00:22:20;100369.47;;;22.12;71.86
42003;BME280;27693;50.506;30.832;2023-08-17T00:23:23;100369.22;;;22.15;71.49
42003;BME280;27693;50.506;30.832;2023-08-17T00:24:25;100365.86;;;22.13;70.60
42003;BME280;27693;50.506;30.832;2023-08-17T00:25:28;100371.88;;;22.15;70.42
42003;BME280;27693;50.506;30.832;2023-08-17T00:26:31;100371.73;;;22.17;71.03
42003;BME280;27693;50.506;30.832;2023-08-17T00:27:33;100368.95;;;22.18;70.84
42003;BME280;27693;50.506;30.832;2023-08-17T00:28:37;100368.95;;;22.18;70.50
42003;BME280;27693;50.506;30.832;2023-08-17T00:29:40;100373.42;;;22.18;70.70
42003;BME280;27693;50.506;30.832;2023-08-17T00:30:44;100371.59;;;22.18;70.25
42003;BME280;27693;50.506;30.832;2023-08-17T00:31:47;100375.11;;;22.19;70.89
42003;BME280;27693;50.506;30.832;2023-08-17T00:32:50;100377.86;;;22.17;70.62
42003;BME280;27693;50.506;30.832;2023-08-17T00:33:54;100371.73;;;22.17;70.96
42003;BME280;27693;50.506;30.832;2023-08-17T00:34:57;100375.11;;;22.19;70.78
42003;BME280;27693;50.506;30.832;2023-08-17T00:35:59;100374.25;;;22.18;71.30
42003;BME280;27693;50.506;30.832;2023-08-17T00:37:02;100369.22;;;22.15;70.22
42003;BME280;27693;50.506;30.832;2023-08-17T00:38:05;100378.97;;;22.15;70.72
42003;BME280;27693;50.506;30.832;2023-08-17T00:39:08;100376.20;;;22.16;70.68
42003;BME280;27693;50.506;30.832;2023-08-17T00:40:11;100367.54;;;22.14;70.51
42003;BME280;27693;50.506;30.832;2023-08-17T00:41:14;100374.91;;;22.11;70.54
42003;BME280;27693;50.506;30.832;2023-08-17T00:42:16;100372.26;;;22.11;70.70
42003;BME280;27693;50.506;30.832;2023-08-17T00:43:19;100374.98;;;21.99;70.44
42003;BME280;27693;50.506;30.832;2023-08-17T00:44:21;100374.98;;;21.99;70.44
42003;BME280;27693;50.506;30.832;2023-08-17T00:45:24;100375.56;;;22.03;71.30
42003;BME280;27693;50.506;30.832;2023-08-17T00:46:26;100377.48;;;22.01;70.78
42003;BME280;27693;50.506;30.832;2023-08-17T00:47:31;100381.23;;;21.98;71.10
42003;BME280;27693;50.506;30.832;2023-08-17T00:48:33;100382.06;;;21.99;70.94
42003;BME280;27693;50.506;30.832;2023-08-17T00:49:36;100382.78;;;22.01;71.53
42003;BME280;27693;50.506;30.832;2023-08-17T00:50:39;100376.77;;;21.99;71.83
42003;BME280;27693;50.506;30.832;2023-08-17T00:51:43;100376.63;;;22.00;71.52
42003;BME280;27693;50.506;30.832;2023-08-17T00:52:45;100381.10;;;22.00;71.61
42003;BME280;27693;50.506;30.832;2023-08-17T00:53:48;100374.39;;;21.96;71.50
42003;BME280;27693;50.506;30.832;2023-08-17T00:54:50;100377.28;;;21.93;71.39
42003;BME280;27693;50.506;30.832;2023-08-17T00:55:53;100374.63;;;21.93;71.40
42003;BME280;27693;50.506;30.832;2023-08-17T00:56:56;100383.55;;;21.92;71.24
42003;BME280;27693;50.506;30.832;2023-08-17T00:58:00;100381.62;;;21.94;71.16
42003;BME280;27693;50.506;30.832;2023-08-17T00:59:04;100383.30;;;21.95;70.73
42003;BME280;27693;50.506;30.832;2023-08-17T01:00:10;100385.09;;;21.94;70.80
42003;BME280;27693;50.506;30.832;2023-08-17T01:01:14;100382.34;;;21.96;70.88
42003;BME280;27693;50.506;30.832;2023-08-17T01:02:17;100381.86;;;21.91;70.91
42003;BME280;27693;50.506;30.832;2023-08-17T01:03:22;100378.25;;;21.92;71.18
42003;BME280;27693;50.506;30.832;2023-08-17T01:04:25;100382.72;;;21.91;71.35
42003;BME280;27693;50.506;30.832;2023-08-17T01:05:27;100379.34;;;21.89;71.35
42003;BME280;27693;50.506;30.832;2023-08-17T01:06:31;100377.08;;;21.84;71.58
42003;BME280;27693;50.506;30.832;2023-08-17T01:07:34;100380.31;;;21.88;71.75
42003;BME280;27693;50.506;30.832;2023-08-17T01:08:37;100380.20;;;21.90;71.73
42003;BME280;27693;50.506;30.832;2023-08-17T01:09:42;100383.81;;;21.89;71.65
42003;BME280;27693;50.506;30.832;2023-08-17T01:10:55;100378.76;;;21.85;71.67
42003;BME280;27693;50.506;30.832;2023-08-17T01:12:16;100380.69;;;21.83;71.46
42003;BME280;27693;50.506;30.832;2023-08-17T01:13:25;100375.39;;;21.83;71.70
42003;BME280;27693;50.506;30.832;2023-08-17T01:14:39;100376.48;;;21.81;71.92
42003;BME280;27693;50.506;30.832;2023-08-17T01:15:50;100370.88;;;21.74;71.84
42003;BME280;27693;50.506;30.832;2023-08-17T01:17:12;100369.19;;;21.73;72.03
42003;BME280;27693;50.506;30.832;2023-08-17T01:18:23;100372.80;;;21.72;72.06
42003;BME280;27693;50.506;30.832;2023-08-17T01:19:27;100376.68;;;21.68;72.31
42003;BME280;27693;50.506;30.832;2023-08-17T01:20:31;100374.13;;;21.66;72.40
42003;BME280;27693;50.506;30.832;2023-08-17T01:22:52;100371.46;;;21.78;72.45
42003;BME280;27693;50.506;30.832;2023-08-17T01:23:58;100374.41;;;21.63;73.27
42003;BME280;27693;50.506;30.832;2023-08-17T01:25:04;100371.63;;;21.65;72.83
42003;BME280;27693;50.506;30.832;2023-08-17T01:26:07;100382.59;;;21.60;72.62
42003;BME280;27693;50.506;30.832;2023-08-17T01:27:09;100374.05;;;21.57;72.32
42003;BME280;27693;50.506;30.832;2023-08-17T01:28:12;100386.56;;;21.54;72.64
42003;BME280;27693;50.506;30.832;2023-08-17T01:29:15;100370.92;;;21.51;72.79
42003;BME280;27693;50.506;30.832;2023-08-17T01:30:19;100378.72;;;21.53;72.84
42003;BME280;27693;50.506;30.832;2023-08-17T01:31:40;100383.91;;;21.54;72.58
42003;BME280;27693;50.506;30.832;2023-08-17T01:32:56;100374.91;;;21.57;72.80
42003;BME280;27693;50.506;30.832;2023-08-17T01:34:05;100376.59;;;21.58;72.78
42003;BME280;27693;50.506;30.832;2023-08-17T01:35:09;100385.37;;;21.59;72.67
42003;BME280;27693;50.506;30.832;2023-08-17T01:36:15;100382.92;;;21.55;72.76
42003;BME280;27693;50.506;30.832;2023-08-17T01:37:19;100381.14;;;21.56;72.71
42003;BME280;27693;50.506;30.832;2023-08-17T01:38:25;100381.27;;;21.54;72.91
42003;BME280;27693;50.506;30.832;2023-08-17T01:39:35;100382.92;;;21.55;72.69
42003;BME280;27693;50.506;30.832;2023-08-17T01:40:35;100383.78;;;21.56;72.65
42003;BME280;27693;50.506;30.832;2023-08-17T01:41:39;100377.62;;;21.55;72.66
42003;BME280;27693;50.506;30.832;2023-08-17T01:42:43;100379.82;;;21.50;73.42
42003;BME280;27693;50.506;30.832;2023-08-17T01:43:46;100380.45;;;21.43;73.06
42003;BME280;27693;50.506;30.832;2023-08-17T01:44:51;100381.41;;;21.42;73.46
42003;BME280;27693;50.506;30.832;2023-08-17T01:45:54;100387.53;;;21.42;73.43
42003;BME280;27693;50.506;30.832;2023-08-17T01:46:56;100387.53;;;21.42;73.43
42003;BME280;27693;50.506;30.832;2023-08-17T01:47:59;100387.53;;;21.42;73.53
42003;BME280;27693;50.506;30.832;2023-08-17T01:49:01;100387.06;;;21.48;73.43
42003;BME280;27693;50.506;30.832;2023-08-17T01:50:06;100387.06;;;21.48;73.43
42003;BME280;27693;50.506;30.832;2023-08-17T01:51:10;100386.34;;;21.46;73.62
42003;BME280;27693;50.506;30.832;2023-08-17T01:52:12;100387.80;;;21.39;73.64
42003;BME280;27693;50.506;30.832;2023-08-17T01:53:15;100387.80;;;21.39;73.42
42003;BME280;27693;50.506;30.832;2023-08-17T01:54:17;100386.12;;;21.38;73.33
42003;BME280;27693;50.506;30.832;2023-08-17T01:55:21;100383.34;;;21.39;73.43
42003;BME280;27693;50.506;30.832;2023-08-17T01:56:34;100386.80;;;21.51;73.28
42003;BME280;27693;50.506;30.832;2023-08-17T01:57:36;100381.06;;;21.35;73.44
42003;BME280;27693;50.506;30.832;2023-08-17T01:58:40;100379.40;;;21.34;73.04
42003;BME280;27693;50.506;30.832;2023-08-17T01:59:42;100374.94;;;21.34;73.09
42003;BME280;27693;50.506;30.832;2023-08-17T02:00:45;100381.91;;;21.35;73.40
42003;BME280;27693;50.506;30.832;2023-08-17T02:01:48;100383.01;;;21.33;73.23
42003;BME280;27693;50.506;30.832;2023-08-17T02:02:50;100384.56;;;21.35;73.48
42003;BME280;27693;50.506;30.832;2023-08-17T02:03:53;100384.10;;;21.30;73.69
42003;BME280;27693;50.506;30.832;2023-08-17T02:04:55;100384.20;;;21.29;73.84
42003;BME280;27693;50.506;30.832;2023-08-17T02:05:59;100386.16;;;21.27;73.75
42003;BME280;27693;50.506;30.832;2023-08-17T02:07:03;100381.55;;;21.29;73.70
42003;BME280;27693;50.506;30.832;2023-08-17T02:08:05;100384.10;;;21.30;73.83
42003;BME280;27693;50.506;30.832;2023-08-17T02:09:08;100383.84;;;21.33;73.88
42003;BME280;27693;50.506;30.832;2023-08-17T02:10:12;100381.06;;;21.35;73.92
42003;BME280;27693;50.506;30.832;2023-08-17T02:11:14;100385.29;;;21.37;73.97
42003;BME280;27693;50.506;30.832;2023-08-17T02:12:16;100382.51;;;21.39;73.82
42003;BME280;27693;50.506;30.832;2023-08-17T02:13:20;100384.20;;;21.40;73.51
42003;BME280;27693;50.506;30.832;2023-08-17T02:14:23;100381.91;;;21.35;73.62
42003;BME280;27693;50.506;30.832;2023-08-17T02:15:25;100392.38;;;21.37;73.72
42003;BME280;27693;50.506;30.832;2023-08-17T02:16:28;100389.86;;;21.35;73.45
42003;BME280;27693;50.506;30.832;2023-08-17T02:17:30;100388.53;;;21.30;73.25
42003;BME280;27693;50.506;30.832;2023-08-17T02:18:33;100387.84;;;21.28;73.40
42003;BME280;27693;50.506;30.832;2023-08-17T02:19:37;100395.78;;;21.28;73.75
42003;BME280;27693;50.506;30.832;2023-08-17T02:20:39;100390.72;;;21.25;74.00
42003;BME280;27693;50.506;30.832;2023-08-17T02:21:42;100386.52;;;21.22;74.17
42003;BME280;27693;50.506;30.832;2023-08-17T02:22:44;100393.86;;;21.18;74.29
42003;BME280;27693;50.506;30.832;2023-08-17T02:23:46;100390.61;;;21.15;74.43
42003;BME280;27693;50.506;30.832;2023-08-17T02:24:48;100387.38;;;21.11;74.43
42003;BME280;27693;50.506;30.832;2023-08-17T02:25:51;100389.89;;;21.13;74.51
42003;BME280;27693;50.506;30.832;2023-08-17T02:26:55;100394.34;;;21.12;74.68
42003;BME280;27693;50.506;30.832;2023-08-17T02:27:58;100398.69;;;21.13;74.64
42003;BME280;27693;50.506;30.832;2023-08-17T02:29:02;100401.42;;;21.12;74.72
42003;BME280;27693;50.506;30.832;2023-08-17T02:30:06;100396.63;;;21.05;75.05
42003;BME280;27693;50.506;30.832;2023-08-17T02:31:09;100397.58;;;21.04;74.93
42003;BME280;27693;50.506;30.832;2023-08-17T02:32:12;100392.42;;;21.03;74.86
42003;BME280;27693;50.506;30.832;2023-08-17T02:33:15;100397.24;;;20.98;75.42
42003;BME280;27693;50.506;30.832;2023-08-17T02:34:17;100395.22;;;20.90;75.65
42003;BME280;27693;50.506;30.832;2023-08-17T02:35:20;100393.28;;;20.81;76.29
42003;BME280;27693;50.506;30.832;2023-08-17T02:36:22;100396.41;;;20.74;76.16
42003;BME280;27693;50.506;30.832;2023-08-17T02:37:25;100392.91;;;20.74;76.34
42003;BME280;27693;50.506;30.832;2023-08-17T02:38:27;100397.49;;;20.72;76.34
42003;BME280;27693;50.506;30.832;2023-08-17T02:39:30;100393.61;;;20.65;77.03
42003;BME280;27693;50.506;30.832;2023-08-17T02:40:32;100402.24;;;20.67;76.84
42003;BME280;27693;50.506;30.832;2023-08-17T02:41:34;100399.13;;;20.62;76.73
42003;BME280;27693;50.506;30.832;2023-08-17T02:42:37;100402.97;;;20.57;77.05
42003;BME280;27693;50.506;30.832;2023-08-17T02:43:41;100391.89;;;20.41;78.12
42003;BME280;27693;50.506;30.832;2023-08-17T02:44:43;100388.03;;;20.34;78.79
42003;BME280;27693;50.506;30.832;2023-08-17T02:45:46;100394.27;;;20.33;79.05
42003;BME280;27693;50.506;30.832;2023-08-17T02:46:49;100392.36;;;20.35;79.08
42003;BME280;27693;50.506;30.832;2023-08-17T02:47:51;100395.95;;;20.34;79.07
42003;BME280;27693;50.506;30.832;2023-08-17T02:48:54;100398.50;;;20.35;78.99
42003;BME280;27693;50.506;30.832;2023-08-17T02:49:56;100396.20;;;20.31;79.25
42003;BME280;27693;50.506;30.832;2023-08-17T02:50:58;100397.52;;;20.36;79.15
42003;BME280;27693;50.506;30.832;2023-08-17T02:52:01;100403.66;;;20.37;78.76
42003;BME280;27693;50.506;30.832;2023-08-17T02:53:04;100398.25;;;20.38;78.58
42003;BME280;27693;50.506;30.832;2023-08-17T02:54:08;100398.03;;;20.41;78.60
42003;BME280;27693;50.506;30.832;2023-08-17T02:55:10;100398.64;;;20.45;78.21
42003;BME280;27693;50.506;30.832;2023-08-17T02:56:13;100401.03;;;20.48;77.87
42003;BME280;27693;50.506;30.832;2023-08-17T02:57:15;100401.77;;;20.50;78.11
42003;BME280;27693;50.506;30.832;2023-08-17T02:58:17;100394.31;;;20.55;78.11
42003;BME280;27693;50.506;30.832;2023-08-17T02:59:20;100402.11;;;20.57;77.65
42003;BME280;27693;50.506;30.832;2023-08-17T03:00:22;100405.36;;;20.61;77.83
42003;BME280;27693;50.506;30.832;2023-08-17T03:01:25;100400.33;;;20.57;77.90
42003;BME280;27693;50.506;30.832;2023-08-17T03:02:27;100399.37;;;20.58;77.38
42003;BME280;27693;50.506;30.832;2023-08-17T03:03:30;100406.32;;;20.59;77.46
42003;BME280;27693;50.506;30.832;2023-08-17T03:04:32;100401.89;;;20.60;77.07
42003;BME280;27693;50.506;30.832;2023-08-17T03:05:35;100402.50;;;20.64;77.24
42003;BME280;27693;50.506;30.832;2023-08-17T03:06:38;100404.41;;;20.62;77.38
42003;BME280;27693;50.506;30.832;2023-08-17T03:07:40;100408.61;;;20.64;77.43
42003;BME280;27693;50.506;30.832;2023-08-17T03:08:43;100404.28;;;20.63;77.20
42003;BME280;27693;50.506;30.832;2023-08-17T03:09:46;100404.41;;;20.62;77.30
42003;BME280;27693;50.506;30.832;2023-08-17T03:10:48;100399.85;;;20.64;77.14
42003;BME280;27693;50.506;30.832;2023-08-17T03:11:53;100407.78;;;20.64;77.28
42003;BME280;27693;50.506;30.832;2023-08-17T03:12:55;100400.59;;;20.66;77.20
42003;BME280;27693;50.506;30.832;2023-08-17T03:13:58;100404.06;;;20.66;77.43
42003;BME280;27693;50.506;30.832;2023-08-17T03:15:06;100405.75;;;20.67;77.23
42003;BME280;27693;50.506;30.832;2023-08-17T03:16:09;100400.59;;;20.66;77.13
42003;BME280;27693;50.506;30.832;2023-08-17T03:17:13;100407.78;;;20.64;77.27
42003;BME280;27693;50.506;30.832;2023-08-17T03:18:15;100410.42;;;20.64;77.33
42003;BME280;27693;50.506;30.832;2023-08-17T03:19:17;100407.05;;;20.62;77.45
42003;BME280;27693;50.506;30.832;2023-08-17T03:20:20;100405.14;;;20.64;77.41
42003;BME280;27693;50.506;30.832;2023-08-17T03:21:24;100398.04;;;20.64;77.34
42003;BME280;27693;50.506;30.832;2023-08-17T03:22:26;100411.16;;;20.66;77.24
42003;BME280;27693;50.506;30.832;2023-08-17T03:23:29;100406.09;;;20.63;77.17
42003;BME280;27693;50.506;30.832;2023-08-17T03:24:32;100410.91;;;20.57;77.48
42003;BME280;27693;50.506;30.832;2023-08-17T03:25:35;100408.83;;;20.50;78.05
42003;BME280;27693;50.506;30.832;2023-08-17T03:26:37;100407.61;;;20.42;78.24
42003;BME280;27693;50.506;30.832;2023-08-17T03:27:41;100411.46;;;20.38;78.51
42003;BME280;27693;50.506;30.832;2023-08-17T03:28:44;100399.08;;;20.39;78.46
42003;BME280;27693;50.506;30.832;2023-08-17T03:29:47;100407.52;;;20.44;78.41
42003;BME280;27693;50.506;30.832;2023-08-17T03:30:49;100403.67;;;20.48;78.62
42003;BME280;27693;50.506;30.832;2023-08-17T03:31:52;100407.27;;;20.47;78.45
42003;BME280;27693;50.506;30.832;2023-08-17T03:32:57;100397.64;;;20.35;78.67
42003;BME280;27693;50.506;30.832;2023-08-17T03:34:00;100397.64;;;20.35;78.67
42003;BME280;27693;50.506;30.832;2023-08-17T03:35:04;100400.55;;;20.43;78.82
42003;BME280;27693;50.506;30.832;2023-08-17T03:36:06;100403.06;;;20.45;78.74
42003;BME280;27693;50.506;30.832;2023-08-17T03:37:09;100403.31;;;20.41;78.75
42003;BME280;27693;50.506;30.832;2023-08-17T03:38:12;100407.52;;;20.44;78.52
42003;BME280;27693;50.506;30.832;2023-08-17T03:39:15;100406.66;;;20.43;78.71
42003;BME280;27693;50.506;30.832;2023-08-17T03:40:18;100407.27;;;20.47;78.48
42003;BME280;27693;50.506;30.832;2023-08-17T03:41:21;100398.38;;;20.48;78.42
42003;BME280;27693;50.506;30.832;2023-08-17T03:42:25;100399.34;;;20.47;79.10
42003;BME280;27693;50.506;30.832;2023-08-17T03:43:27;100406.80;;;20.53;78.60
42003;BME280;27693;50.506;30.832;2023-08-17T03:44:30;100401.63;;;20.52;78.20
42003;BME280;27693;50.506;30.832;2023-08-17T03:45:34;100400.30;;;20.46;78.72
42003;BME280;27693;50.506;30.832;2023-08-17T03:46:36;100410.87;;;20.46;78.78
42003;BME280;27693;50.506;30.832;2023-08-17T03:47:39;100401.89;;;20.49;78.73
42003;BME280;27693;50.506;30.832;2023-08-17T03:48:41;100408.34;;;20.45;78.76
42003;BME280;27693;50.506;30.832;2023-08-17T03:49:44;100403.67;;;20.48;78.61
42003;BME280;27693;50.506;30.832;2023-08-17T03:50:47;100407.66;;;20.54;78.56
42003;BME280;27693;50.506;30.832;2023-08-17T03:51:51;100405.02;;;20.54;78.39
42003;BME280;27693;50.506;30.832;2023-08-17T03:52:54;100407.40;;;20.57;78.12
42003;BME280;27693;50.506;30.832;2023-08-17T03:53:56;100407.66;;;20.54;78.39
42003;BME280;27693;50.506;30.832;2023-08-17T03:54:59;100407.53;;;20.55;78.15
42003;BME280;27693;50.506;30.832;2023-08-17T03:56:02;100412.47;;;20.60;78.22
42003;BME280;27693;50.506;30.832;2023-08-17T03:57:04;100409.69;;;20.62;77.87
42003;BME280;27693;50.506;30.832;2023-08-17T03:58:07;100408.01;;;20.61;77.89
42003;BME280;27693;50.506;30.832;2023-08-17T03:59:09;100414.03;;;20.63;77.63
42003;BME280;27693;50.506;30.832;2023-08-17T04:00:12;100407.78;;;20.64;77.22
42003;BME280;27693;50.506;30.832;2023-08-17T04:01:17;100407.53;;;20.67;77.31
42003;BME280;27693;50.506;30.832;2023-08-17T04:02:20;100410.72;;;20.72;77.50
42003;BME280;27693;50.506;30.832;2023-08-17T04:03:23;100408.39;;;20.67;77.47
42003;BME280;27693;50.506;30.832;2023-08-17T04:04:25;100406.70;;;20.66;77.48
42003;BME280;27693;50.506;30.832;2023-08-17T04:05:28;100408.27;;;20.69;77.39
42003;BME280;27693;50.506;30.832;2023-08-17T04:06:30;100399.98;;;20.62;77.64
42003;BME280;27693;50.506;30.832;2023-08-17T04:07:33;100399.59;;;20.67;77.60
42003;BME280;27693;50.506;30.832;2023-08-17T04:08:38;100398.64;;;20.68;77.42
42003;BME280;27693;50.506;30.832;2023-08-17T04:09:43;100396.86;;;20.68;77.59
42003;BME280;27693;50.506;30.832;2023-08-17T04:10:47;100398.64;;;20.68;77.40
42003;BME280;27693;50.506;30.832;2023-08-17T04:11:49;100402.50;;;20.64;77.46
42003;BME280;27693;50.506;30.832;2023-08-17T04:12:51;100402.50;;;20.64;77.72
42003;BME280;27693;50.506;30.832;2023-08-17T04:13:54;100403.93;;;20.68;77.58
42003;BME280;27693;50.506;30.832;2023-08-17T04:14:56;100401.41;;;20.66;77.67
42003;BME280;27693;50.506;30.832;2023-08-17T04:16:01;100399.19;;;20.73;77.16
42003;BME280;27693;50.506;30.832;2023-08-17T04:17:03;100399.19;;;20.73;77.16
42003;BME280;27693;50.506;30.832;2023-08-17T04:18:06;100399.05;;;20.74;77.01
42003;BME280;27693;50.506;30.832;2023-08-17T04:19:09;100401.83;;;20.73;76.93
42003;BME280;27693;50.506;30.832;2023-08-17T04:20:12;100402.37;;;20.65;77.28
42003;BME280;27693;50.506;30.832;2023-08-17T04:21:15;100402.72;;;20.61;77.47
42003;BME280;27693;50.506;30.832;2023-08-17T04:22:17;100399.13;;;20.62;77.81
42003;BME280;27693;50.506;30.832;2023-08-17T04:23:20;100402.14;;;20.68;77.69
42003;BME280;27693;50.506;30.832;2023-08-17T04:24:23;100400.73;;;20.76;77.10
42003;BME280;27693;50.506;30.832;2023-08-17T04:25:25;100403.48;;;20.74;76.99
42003;BME280;27693;50.506;30.832;2023-08-17T04:26:28;100404.69;;;20.81;76.87
42003;BME280;27693;50.506;30.832;2023-08-17T04:27:30;100406.73;;;20.78;76.57
42003;BME280;27693;50.506;30.832;2023-08-17T04:28:33;100403.70;;;20.71;76.93
42003;BME280;27693;50.506;30.832;2023-08-17T04:29:36;100405.42;;;20.72;78.19
42003;BME280;27693;50.506;30.832;2023-08-17T04:30:39;100412.14;;;20.76;78.44
42003;BME280;27693;50.506;30.832;2023-08-17T04:31:42;100418.64;;;20.83;76.80
42003;BME280;27693;50.506;30.832;2023-08-17T04:32:45;100412.88;;;20.89;76.34
42003;BME280;27693;50.506;30.832;2023-08-17T04:33:51;100417.20;;;20.90;76.20
42003;BME280;27693;50.506;30.832;2023-08-17T04:34:54;100414.08;;;20.85;76.42
42003;BME280;27693;50.506;30.832;2023-08-17T04:35:57;100413.83;;;20.88;76.38
42003;BME280;27693;50.506;30.832;2023-08-17T04:37:01;100414.78;;;20.87;76.34
42003;BME280;27693;50.506;30.832;2023-08-17T04:38:04;100411.18;;;20.88;76.68
42003;BME280;27693;50.506;30.832;2023-08-17T04:39:06;100410.70;;;20.95;76.57
42003;BME280;27693;50.506;30.832;2023-08-17T04:40:11;100414.67;;;21.00;76.72
42003;BME280;27693;50.506;30.832;2023-08-17T04:41:14;100411.06;;;21.01;76.42
42003;BME280;27693;50.506;30.832;2023-08-17T04:42:18;100412.63;;;21.04;75.80
42003;BME280;27693;50.506;30.832;2023-08-17T04:43:22;100417.56;;;21.09;76.10
42003;BME280;27693;50.506;30.832;2023-08-17T04:44:24;100417.90;;;21.15;75.35
42003;BME280;27693;50.506;30.832;2023-08-17T04:45:27;100426.08;;;21.23;75.55
42003;BME280;27693;50.506;30.832;2023-08-17T04:46:30;100418.60;;;21.29;75.34
42003;BME280;27693;50.506;30.832;2023-08-17T04:47:33;100420.55;;;21.27;74.58
42003;BME280;27693;50.506;30.832;2023-08-17T04:48:35;100421.15;;;21.30;75.13
42003;BME280;27693;50.506;30.832;2023-08-17T04:49:38;100424.28;;;21.24;74.69
42003;BME280;27693;50.506;30.832;2023-08-17T04:50:41;100421.64;;;21.24;74.51
42003;BME280;27693;50.506;30.832;2023-08-17T04:51:45;100420.55;;;21.27;75.24
42003;BME280;27693;50.506;30.832;2023-08-17T04:52:50;100417.64;;;21.30;74.52
42003;BME280;27693;50.506;30.832;2023-08-17T04:53:52;100425.48;;;21.31;74.49
42003;BME280;27693;50.506;30.832;2023-08-17T04:54:55;100427.03;;;21.34;74.31
42003;BME280;27693;50.506;30.832;2023-08-17T04:55:59;100421.74;;;21.34;74.79
42003;BME280;27693;50.506;30.832;2023-08-17T04:57:02;100422.34;;;21.37;74.38
42003;BME280;27693;50.506;30.832;2023-08-17T04:58:06;100427.37;;;21.41;74.12
42003;BME280;27693;50.506;30.832;2023-08-17T04:59:09;100427.73;;;21.47;74.15
42003;BME280;27693;50.506;30.832;2023-08-17T05:00:13;100428.92;;;21.54;74.02
42003;BME280;27693;50.506;30.832;2023-08-17T05:01:16;100423.75;;;21.64;73.41
42003;BME280;27693;50.506;30.832;2023-08-17T05:02:22;100426.27;;;21.66;73.33
42003;BME280;27693;50.506;30.832;2023-08-17T05:03:25;100426.27;;;21.66;73.19
42003;BME280;27693;50.506;30.832;2023-08-17T05:04:30;100420.47;;;21.72;73.32
42003;BME280;27693;50.506;30.832;2023-08-17T05:05:33;100416.59;;;21.76;72.93
42003;BME280;27693;50.506;30.832;2023-08-17T05:06:39;100418.86;;;21.81;72.31
42003;BME280;27693;50.506;30.832;2023-08-17T05:07:41;100422.00;;;21.86;72.52
42003;BME280;27693;50.506;30.832;2023-08-17T05:08:44;100422.59;;;21.90;72.26
42003;BME280;27693;50.506;30.832;2023-08-17T05:09:47;100431.22;;;21.92;71.84
42003;BME280;27693;50.506;30.832;2023-08-17T05:10:50;100428.71;;;21.90;71.75
42003;BME280;27693;50.506;30.832;2023-08-17T05:11:53;100420.90;;;21.89;72.47
42003;BME280;27693;50.506;30.832;2023-08-17T05:12:56;100427.16;;;21.88;72.25
42003;BME280;27693;50.506;30.832;2023-08-17T05:13:59;100419.95;;;21.78;72.38
42003;BME280;27693;50.506;30.832;2023-08-17T05:15:04;100433.57;;;21.74;72.63
42003;BME280;27693;50.506;30.832;2023-08-17T05:16:08;100431.05;;;21.72;72.87
42003;BME280;27693;50.506;30.832;2023-08-17T05:17:11;100433.70;;;21.72;72.81
42003;BME280;27693;50.506;30.832;2023-08-17T05:18:13;100435.52;;;21.72;73.09
42003;BME280;27693;50.506;30.832;2023-08-17T05:19:18;100425.52;;;21.75;72.97
42003;BME280;27693;50.506;30.832;2023-08-17T05:20:20;100420.81;;;21.79;72.57
42003;BME280;27693;50.506;30.832;2023-08-17T05:21:23;100426.44;;;21.85;72.46
42003;BME280;27693;50.506;30.832;2023-08-17T05:22:27;100430.55;;;21.78;72.38
42003;BME280;27693;50.506;30.832;2023-08-17T05:23:29;100422.09;;;21.84;72.22
42003;BME280;27693;50.506;30.832;2023-08-17T05:24:32;100429.80;;;21.88;71.99
42003;BME280;27693;50.506;30.832;2023-08-17T05:25:34;100432.91;;;21.93;72.20
42003;BME280;27693;50.506;30.832;2023-08-17T05:26:37;100432.67;;;21.96;71.76
42003;BME280;27693;50.506;30.832;2023-08-17T05:27:40;100429.23;;;22.05;71.60
42003;BME280;27693;50.506;30.832;2023-08-17T05:28:43;100435.27;;;22.07;71.48
42003;BME280;27693;50.506;30.832;2023-08-17T05:29:47;100429.38;;;22.04;71.60